sensor_id;sensor_type;location;lat;lon;timestamp;P1;durP1;ratioP1;P2;durP2;ratioP2
72373;SDS011;60349;64.132;-21.820;2023-05-07T00:00:18;0.20;;;0.00;;
72373;SDS011;60349;64.132;-21.820;2023-05-07T00:02:45;1.13;;;0.00;;
72373;SDS011;60349;64.132;-21.820;2023-05-07T00:05:11;1.52;;;0.00;;
72373;SDS011;60349;64.132;-21.820;2023-05-07T00:07:37;0.57;;;0.00;;
72373;SDS011;60349;64.132;-21.820;2023-05-07T00:10:04;0.20;;;0.00;;
72373;SDS011;60349;64.132;-21.820;2023-05-07T00:12:31;0.52;;;0.00;;
72373;SDS011;60349;64.132;-21.820;2023-05-07T00:14:59;0.75;;;0.00;;
72373;SDS011;60349;64.132;-21.820;2023-05-07T00:17:25;0.20;;;0.00;;
72373;SDS011;60349;64.132;-21.820;2023-05-07T00:19:51;0.13;;;0.00;;
72373;SDS011;60349;64.132;-21.820;2023-05-07T00:22:17;0.20;;;0.00;;
72373;SDS011;60349;64.132;-21.820;2023-05-07T00:24:43;0.00;;;0.00;;
72373;SDS011;60349;64.132;-21.820;2023-05-07T00:27:09;0.60;;;0.10;;
72373;SDS011;60349;64.132;-21.820;2023-05-07T00:29:35;0.08;;;0.00;;
72373;SDS011;60349;64.132;-21.820;2023-05-07T00:32:02;0.00;;;0.00;;
72373;SDS011;60349;64.132;-21.820;2023-05-07T00:34:28;0.38;;;0.00;;
72373;SDS011;60349;64.132;-21.820;2023-05-07T00:36:54;4.88;;;0.00;;
72373;SDS011;60349;64.132;-21.820;2023-05-07T00:39:20;0.00;;;0.00;;
72373;SDS011;60349;64.132;-21.820;2023-05-07T00:41:46;0.00;;;0.00;;
72373;SDS011;60349;64.132;-21.820;2023-05-07T00:44:13;1.00;;;0.00;;
72373;SDS011;60349;64.132;-21.820;2023-05-07T00:46:39;1.15;;;0.00;;
72373;SDS011;60349;64.132;-21.820;2023-05-07T00:49:06;0.10;;;0.00;;
72373;SDS011;60349;64.132;-21.820;2023-05-07T00:51:32;0.00;;;0.00;;
72373;SDS011;60349;64.132;-21.820;2023-05-07T00:53:59;0.20;;;0.00;;
72373;SDS011;60349;64.132;-21.820;2023-05-07T00:56:26;1.65;;;0.00;;
72373;SDS011;60349;64.132;-21.820;2023-05-07T00:58:52;0.00;;;0.00;;
72373;SDS011;60349;64.132;-21.820;2023-05-07T01:01:18;0.13;;;0.00;;
72373;SDS011;60349;64.132;-21.820;2023-05-07T01:03:44;0.63;;;0.00;;
72373;SDS011;60349;64.132;-21.820;2023-05-07T01:06:11;0.05;;;0.00;;
72373;SDS011;60349;64.132;-21.820;2023-05-07T01:08:38;0.00;;;0.00;;
72373;SDS011;60349;64.132;-21.820;2023-05-07T01:11:05;0.00;;;0.00;;
72373;SDS011;60349;64.132;-21.820;2023-05-07T01:13:31;0.00;;;0.00;;
72373;SDS011;60349;64.132;-21.820;2023-05-07T01:15:57;0.10;;;0.00;;
72373;SDS011;60349;64.132;-21.820;2023-05-07T01:18:23;2.30;;;0.00;;
72373;SDS011;60349;64.132;-21.820;2023-05-07T01:20:51;0.03;;;0.00;;
72373;SDS011;60349;64.132;-21.820;2023-05-07T01:23:17;0.00;;;0.00;;
72373;SDS011;60349;64.132;-21.820;2023-05-07T01:25:50;1.13;;;0.00;;
72373;SDS011;60349;64.132;-21.820;2023-05-07T01:28:16;0.00;;;0.00;;
72373;SDS011;60349;64.132;-21.820;2023-05-07T01:30:42;0.10;;;0.00;;
72373;SDS011;60349;64.132;-21.820;2023-05-07T01:33:11;0.00;;;0.00;;
72373;SDS011;60349;64.132;-21.820;2023-05-07T01:35:40;0.30;;;0.00;;
72373;SDS011;60349;64.132;-21.820;2023-05-07T01:38:07;0.00;;;0.00;;
72373;SDS011;60349;64.132;-21.820;2023-05-07T01:40:34;0.00;;;0.00;;
72373;SDS011;60349;64.132;-21.820;2023-05-07T01:43:00;0.00;;;0.00;;
72373;SDS011;60349;64.132;-21.820;2023-05-07T01:45:27;0.00;;;0.00;;
72373;SDS011;60349;64.132;-21.820;2023-05-07T01:47:53;0.00;;;0.00;;
72373;SDS011;60349;64.132;-21.820;2023-05-07T01:50:20;0.10;;;0.00;;
72373;SDS011;60349;64.132;-21.820;2023-05-07T01:52:47;0.10;;;0.00;;
72373;SDS011;60349;64.132;-21.820;2023-05-07T01:55:15;0.98;;;0.00;;
72373;SDS011;60349;64.132;-21.820;2023-05-07T01:57:41;0.00;;;0.00;;
72373;SDS011;60349;64.132;-21.820;2023-05-07T02:00:08;0.00;;;0.00;;
72373;SDS011;60349;64.132;-21.820;2023-05-07T02:02:34;0.20;;;0.00;;
72373;SDS011;60349;64.132;-21.820;2023-05-07T02:05:00;1.27;;;0.00;;
72373;SDS011;60349;64.132;-21.820;2023-05-07T02:07:27;0.25;;;0.00;;
72373;SDS011;60349;64.132;-21.820;2023-05-07T02:09:53;3.17;;;0.00;;
72373;SDS011;60349;64.132;-21.820;2023-05-07T02:12:22;0.82;;;0.00;;
72373;SDS011;60349;64.132;-21.820;2023-05-07T02:14:49;1.42;;;0.10;;
72373;SDS011;60349;64.132;-21.820;2023-05-07T02:17:15;4.78;;;0.10;;
72373;SDS011;60349;64.132;-21.820;2023-05-07T02:19:41;0.55;;;0.00;;
72373;SDS011;60349;64.132;-21.820;2023-05-07T02:22:07;0.40;;;0.10;;
72373;SDS011;60349;64.132;-21.820;2023-05-07T02:24:33;0.90;;;0.00;;
72373;SDS011;60349;64.132;-21.820;2023-05-07T02:26:59;0.38;;;0.00;;
72373;SDS011;60349;64.132;-21.820;2023-05-07T02:29:26;0.65;;;0.10;;
72373;SDS011;60349;64.132;-21.820;2023-05-07T02:31:52;0.70;;;0.00;;
72373;SDS011;60349;64.132;-21.820;2023-05-07T02:34:18;0.43;;;0.00;;
72373;SDS011;60349;64.132;-21.820;2023-05-07T02:36:44;0.10;;;0.00;;
72373;SDS011;60349;64.132;-21.820;2023-05-07T02:39:11;0.10;;;0.00;;
72373;SDS011;60349;64.132;-21.820;2023-05-07T02:41:37;0.40;;;0.00;;
72373;SDS011;60349;64.132;-21.820;2023-05-07T02:44:03;0.50;;;0.00;;
72373;SDS011;60349;64.132;-21.820;2023-05-07T02:46:30;0.17;;;0.00;;
72373;SDS011;60349;64.132;-21.820;2023-05-07T02:48:56;1.63;;;0.00;;
72373;SDS011;60349;64.132;-21.820;2023-05-07T02:51:22;0.10;;;0.00;;
72373;SDS011;60349;64.132;-21.820;2023-05-07T02:53:49;0.15;;;0.00;;
72373;SDS011;60349;64.132;-21.820;2023-05-07T02:56:15;0.20;;;0.00;;
72373;SDS011;60349;64.132;-21.820;2023-05-07T02:58:41;0.10;;;0.00;;
72373;SDS011;60349;64.132;-21.820;2023-05-07T03:01:07;0.10;;;0.00;;
72373;SDS011;60349;64.132;-21.820;2023-05-07T03:03:34;0.08;;;0.00;;
72373;SDS011;60349;64.132;-21.820;2023-05-07T03:06:01;6.20;;;0.00;;
72373;SDS011;60349;64.132;-21.820;2023-05-07T03:08:27;0.10;;;0.00;;
72373;SDS011;60349;64.132;-21.820;2023-05-07T03:10:53;5.07;;;0.00;;
72373;SDS011;60349;64.132;-21.820;2023-05-07T03:13:19;2.05;;;0.00;;
72373;SDS011;60349;64.132;-21.820;2023-05-07T03:15:45;10.43;;;0.20;;
72373;SDS011;60349;64.132;-21.820;2023-05-07T03:18:11;2.30;;;0.40;;
72373;SDS011;60349;64.132;-21.820;2023-05-07T03:20:37;1.98;;;0.40;;
72373;SDS011;60349;64.132;-21.820;2023-05-07T03:23:03;2.58;;;0.30;;
72373;SDS011;60349;64.132;-21.820;2023-05-07T03:25:29;3.67;;;0.50;;
72373;SDS011;60349;64.132;-21.820;2023-05-07T03:27:56;1.42;;;0.20;;
72373;SDS011;60349;64.132;-21.820;2023-05-07T03:30:22;1.38;;;0.20;;
72373;SDS011;60349;64.132;-21.820;2023-05-07T03:32:48;1.20;;;0.20;;
72373;SDS011;60349;64.132;-21.820;2023-05-07T03:35:15;0.98;;;0.20;;
72373;SDS011;60349;64.132;-21.820;2023-05-07T03:37:41;0.93;;;0.20;;
72373;SDS011;60349;64.132;-21.820;2023-05-07T03:40:07;0.95;;;0.10;;
72373;SDS011;60349;64.132;-21.820;2023-05-07T03:42:35;0.70;;;0.10;;
72373;SDS011;60349;64.132;-21.820;2023-05-07T03:45:01;0.80;;;0.30;;
72373;SDS011;60349;64.132;-21.820;2023-05-07T03:47:27;0.50;;;0.08;;
72373;SDS011;60349;64.132;-21.820;2023-05-07T03:49:53;0.52;;;0.10;;
72373;SDS011;60349;64.132;-21.820;2023-05-07T03:52:20;1.88;;;0.10;;
72373;SDS011;60349;64.132;-21.820;2023-05-07T03:54:50;0.88;;;0.00;;
72373;SDS011;60349;64.132;-21.820;2023-05-07T03:57:16;0.38;;;0.00;;
72373;SDS011;60349;64.132;-21.820;2023-05-07T03:59:43;1.65;;;0.20;;
72373;SDS011;60349;64.132;-21.820;2023-05-07T04:02:09;0.77;;;0.10;;
72373;SDS011;60349;64.132;-21.820;2023-05-07T04:04:35;1.98;;;0.10;;
72373;SDS011;60349;64.132;-21.820;2023-05-07T04:07:01;0.50;;;0.10;;
72373;SDS011;60349;64.132;-21.820;2023-05-07T04:09:28;0.80;;;0.10;;
72373;SDS011;60349;64.132;-21.820;2023-05-07T04:11:54;0.88;;;0.10;;
72373;SDS011;60349;64.132;-21.820;2023-05-07T04:14:20;0.68;;;0.00;;
72373;SDS011;60349;64.132;-21.820;2023-05-07T04:16:46;0.57;;;0.10;;
72373;SDS011;60349;64.132;-21.820;2023-05-07T04:19:12;1.45;;;0.00;;
72373;SDS011;60349;64.132;-21.820;2023-05-07T04:21:39;0.45;;;0.00;;
72373;SDS011;60349;64.132;-21.820;2023-05-07T04:24:05;2.38;;;0.00;;
72373;SDS011;60349;64.132;-21.820;2023-05-07T04:26:31;0.30;;;0.00;;
72373;SDS011;60349;64.132;-21.820;2023-05-07T04:28:57;0.20;;;0.00;;
72373;SDS011;60349;64.132;-21.820;2023-05-07T04:31:24;0.40;;;0.00;;
72373;SDS011;60349;64.132;-21.820;2023-05-07T04:33:51;0.40;;;0.00;;
72373;SDS011;60349;64.132;-21.820;2023-05-07T04:36:17;1.88;;;0.00;;
72373;SDS011;60349;64.132;-21.820;2023-05-07T04:38:43;1.02;;;0.00;;
72373;SDS011;60349;64.132;-21.820;2023-05-07T04:41:12;1.20;;;0.00;;
72373;SDS011;60349;64.132;-21.820;2023-05-07T04:43:39;0.43;;;0.00;;
72373;SDS011;60349;64.132;-21.820;2023-05-07T04:46:05;0.30;;;0.00;;
72373;SDS011;60349;64.132;-21.820;2023-05-07T04:48:31;0.00;;;0.00;;
72373;SDS011;60349;64.132;-21.820;2023-05-07T04:50:57;1.92;;;0.03;;
72373;SDS011;60349;64.132;-21.820;2023-05-07T04:53:23;0.08;;;0.00;;
72373;SDS011;60349;64.132;-21.820;2023-05-07T04:55:54;0.00;;;0.00;;
72373;SDS011;60349;64.132;-21.820;2023-05-07T04:58:20;0.30;;;0.00;;
72373;SDS011;60349;64.132;-21.820;2023-05-07T05:00:46;0.45;;;0.00;;
72373;SDS011;60349;64.132;-21.820;2023-05-07T05:03:13;0.10;;;0.00;;
72373;SDS011;60349;64.132;-21.820;2023-05-07T05:05:39;1.55;;;0.00;;
72373;SDS011;60349;64.132;-21.820;2023-05-07T05:08:05;0.63;;;0.00;;
72373;SDS011;60349;64.132;-21.820;2023-05-07T05:10:31;0.30;;;0.00;;
72373;SDS011;60349;64.132;-21.820;2023-05-07T05:12:57;0.43;;;0.00;;
72373;SDS011;60349;64.132;-21.820;2023-05-07T05:15:23;0.08;;;0.00;;
72373;SDS011;60349;64.132;-21.820;2023-05-07T05:17:49;0.00;;;0.00;;
72373;SDS011;60349;64.132;-21.820;2023-05-07T05:20:15;0.08;;;0.00;;
72373;SDS011;60349;64.132;-21.820;2023-05-07T05:22:42;0.00;;;0.00;;
72373;SDS011;60349;64.132;-21.820;2023-05-07T05:25:08;0.00;;;0.00;;
72373;SDS011;60349;64.132;-21.820;2023-05-07T05:27:34;0.10;;;0.00;;
72373;SDS011;60349;64.132;-21.820;2023-05-07T05:30:01;0.10;;;0.00;;
72373;SDS011;60349;64.132;-21.820;2023-05-07T05:32:27;0.10;;;0.00;;
72373;SDS011;60349;64.132;-21.820;2023-05-07T05:34:53;0.00;;;0.00;;
72373;SDS011;60349;64.132;-21.820;2023-05-07T05:37:19;0.10;;;0.00;;
72373;SDS011;60349;64.132;-21.820;2023-05-07T05:39:45;0.00;;;0.00;;
72373;SDS011;60349;64.132;-21.820;2023-05-07T05:42:11;1.27;;;0.00;;
72373;SDS011;60349;64.132;-21.820;2023-05-07T05:44:37;1.27;;;0.00;;
72373;SDS011;60349;64.132;-21.820;2023-05-07T05:47:04;0.10;;;0.00;;
72373;SDS011;60349;64.132;-21.820;2023-05-07T05:49:30;1.15;;;0.00;;
72373;SDS011;60349;64.132;-21.820;2023-05-07T05:51:56;0.57;;;0.10;;
72373;SDS011;60349;64.132;-21.820;2023-05-07T05:54:22;0.00;;;0.00;;
72373;SDS011;60349;64.132;-21.820;2023-05-07T05:56:48;0.10;;;0.00;;
72373;SDS011;60349;64.132;-21.820;2023-05-07T05:59:14;0.10;;;0.00;;
72373;SDS011;60349;64.132;-21.820;2023-05-07T06:01:41;0.00;;;0.00;;
72373;SDS011;60349;64.132;-21.820;2023-05-07T06:04:07;0.10;;;0.00;;
72373;SDS011;60349;64.132;-21.820;2023-05-07T06:06:33;0.00;;;0.00;;
72373;SDS011;60349;64.132;-21.820;2023-05-07T06:08:59;0.08;;;0.00;;
72373;SDS011;60349;64.132;-21.820;2023-05-07T06:11:25;0.00;;;0.00;;
72373;SDS011;60349;64.132;-21.820;2023-05-07T06:13:51;0.10;;;0.00;;
72373;SDS011;60349;64.132;-21.820;2023-05-07T06:16:17;0.13;;;0.00;;
72373;SDS011;60349;64.132;-21.820;2023-05-07T06:18:43;0.40;;;0.00;;
72373;SDS011;60349;64.132;-21.820;2023-05-07T06:21:11;0.00;;;0.00;;
72373;SDS011;60349;64.132;-21.820;2023-05-07T06:23:37;0.00;;;0.00;;
72373;SDS011;60349;64.132;-21.820;2023-05-07T06:26:05;0.00;;;0.00;;
72373;SDS011;60349;64.132;-21.820;2023-05-07T06:28:32;0.00;;;0.00;;
72373;SDS011;60349;64.132;-21.820;2023-05-07T06:31:10;0.13;;;0.00;;
72373;SDS011;60349;64.132;-21.820;2023-05-07T06:33:36;0.00;;;0.00;;
72373;SDS011;60349;64.132;-21.820;2023-05-07T06:36:03;0.00;;;0.00;;
72373;SDS011;60349;64.132;-21.820;2023-05-07T06:38:29;0.00;;;0.00;;
72373;SDS011;60349;64.132;-21.820;2023-05-07T06:40:55;0.00;;;0.00;;
72373;SDS011;60349;64.132;-21.820;2023-05-07T06:43:22;0.10;;;0.00;;
72373;SDS011;60349;64.132;-21.820;2023-05-07T06:45:48;0.57;;;0.00;;
72373;SDS011;60349;64.132;-21.820;2023-05-07T06:48:14;0.05;;;0.00;;
72373;SDS011;60349;64.132;-21.820;2023-05-07T06:50:41;0.00;;;0.00;;
72373;SDS011;60349;64.132;-21.820;2023-05-07T06:53:07;0.00;;;0.00;;
72373;SDS011;60349;64.132;-21.820;2023-05-07T06:55:33;0.00;;;0.00;;
72373;SDS011;60349;64.132;-21.820;2023-05-07T06:57:59;0.10;;;0.00;;
72373;SDS011;60349;64.132;-21.820;2023-05-07T07:00:28;0.10;;;0.00;;
72373;SDS011;60349;64.132;-21.820;2023-05-07T07:02:56;0.00;;;0.00;;
72373;SDS011;60349;64.132;-21.820;2023-05-07T07:05:22;0.00;;;0.00;;
72373;SDS011;60349;64.132;-21.820;2023-05-07T07:07:48;0.08;;;0.00;;
72373;SDS011;60349;64.132;-21.820;2023-05-07T07:10:20;0.00;;;0.00;;
72373;SDS011;60349;64.132;-21.820;2023-05-07T07:12:47;0.00;;;0.00;;
72373;SDS011;60349;64.132;-21.820;2023-05-07T07:15:13;0.00;;;0.00;;
72373;SDS011;60349;64.132;-21.820;2023-05-07T07:17:40;0.13;;;0.00;;
72373;SDS011;60349;64.132;-21.820;2023-05-07T07:20:06;0.00;;;0.00;;
72373;SDS011;60349;64.132;-21.820;2023-05-07T07:22:32;0.00;;;0.00;;
72373;SDS011;60349;64.132;-21.820;2023-05-07T07:24:58;0.00;;;0.00;;
72373;SDS011;60349;64.132;-21.820;2023-05-07T07:27:25;0.00;;;0.00;;
72373;SDS011;60349;64.132;-21.820;2023-05-07T07:29:51;0.45;;;0.00;;
72373;SDS011;60349;64.132;-21.820;2023-05-07T07:32:17;0.00;;;0.00;;
72373;SDS011;60349;64.132;-21.820;2023-05-07T07:34:43;0.00;;;0.00;;
72373;SDS011;60349;64.132;-21.820;2023-05-07T07:37:09;0.00;;;0.00;;
72373;SDS011;60349;64.132;-21.820;2023-05-07T07:39:35;0.00;;;0.00;;
72373;SDS011;60349;64.132;-21.820;2023-05-07T07:42:04;0.85;;;0.00;;
72373;SDS011;60349;64.132;-21.820;2023-05-07T07:44:31;0.00;;;0.00;;
72373;SDS011;60349;64.132;-21.820;2023-05-07T07:46:57;0.08;;;0.00;;
72373;SDS011;60349;64.132;-21.820;2023-05-07T07:49:23;0.00;;;0.00;;
72373;SDS011;60349;64.132;-21.820;2023-05-07T07:51:49;0.03;;;0.00;;
72373;SDS011;60349;64.132;-21.820;2023-05-07T07:54:16;0.40;;;0.00;;
72373;SDS011;60349;64.132;-21.820;2023-05-07T07:56:42;0.00;;;0.00;;
72373;SDS011;60349;64.132;-21.820;2023-05-07T07:59:08;0.00;;;0.00;;
72373;SDS011;60349;64.132;-21.820;2023-05-07T08:01:34;0.00;;;0.00;;
72373;SDS011;60349;64.132;-21.820;2023-05-07T08:04:00;0.00;;;0.00;;
72373;SDS011;60349;64.132;-21.820;2023-05-07T08:06:28;0.00;;;0.00;;
72373;SDS011;60349;64.132;-21.820;2023-05-07T08:08:54;0.00;;;0.00;;
72373;SDS011;60349;64.132;-21.820;2023-05-07T08:11:21;1.73;;;0.00;;
72373;SDS011;60349;64.132;-21.820;2023-05-07T08:13:47;0.00;;;0.00;;
72373;SDS011;60349;64.132;-21.820;2023-05-07T08:16:13;0.00;;;0.00;;
72373;SDS011;60349;64.132;-21.820;2023-05-07T08:18:40;0.00;;;0.00;;
72373;SDS011;60349;64.132;-21.820;2023-05-07T08:21:06;0.00;;;0.00;;
72373;SDS011;60349;64.132;-21.820;2023-05-07T08:23:32;0.00;;;0.00;;
72373;SDS011;60349;64.132;-21.820;2023-05-07T08:25:59;0.47;;;0.20;;
72373;SDS011;60349;64.132;-21.820;2023-05-07T08:28:25;0.13;;;0.00;;
72373;SDS011;60349;64.132;-21.820;2023-05-07T08:30:52;0.00;;;0.00;;
72373;SDS011;60349;64.132;-21.820;2023-05-07T08:33:18;0.20;;;0.00;;
72373;SDS011;60349;64.132;-21.820;2023-05-07T08:35:44;0.95;;;0.00;;
72373;SDS011;60349;64.132;-21.820;2023-05-07T08:38:10;0.00;;;0.00;;
72373;SDS011;60349;64.132;-21.820;2023-05-07T08:40:38;0.00;;;0.00;;
72373;SDS011;60349;64.132;-21.820;2023-05-07T08:43:05;0.20;;;0.00;;
72373;SDS011;60349;64.132;-21.820;2023-05-07T08:45:35;1.33;;;0.10;;
72373;SDS011;60349;64.132;-21.820;2023-05-07T08:48:02;0.55;;;0.00;;
72373;SDS011;60349;64.132;-21.820;2023-05-07T08:50:28;0.43;;;0.00;;
72373;SDS011;60349;64.132;-21.820;2023-05-07T08:52:55;0.00;;;0.00;;
72373;SDS011;60349;64.132;-21.820;2023-05-07T08:55:22;0.10;;;0.00;;
72373;SDS011;60349;64.132;-21.820;2023-05-07T08:57:48;0.00;;;0.00;;
72373;SDS011;60349;64.132;-21.820;2023-05-07T09:00:15;0.10;;;0.00;;
72373;SDS011;60349;64.132;-21.820;2023-05-07T09:02:41;0.05;;;0.00;;
72373;SDS011;60349;64.132;-21.820;2023-05-07T09:05:07;1.13;;;0.00;;
72373;SDS011;60349;64.132;-21.820;2023-05-07T09:07:34;0.03;;;0.00;;
72373;SDS011;60349;64.132;-21.820;2023-05-07T09:10:03;0.35;;;0.00;;
72373;SDS011;60349;64.132;-21.820;2023-05-07T09:12:29;0.28;;;0.00;;
72373;SDS011;60349;64.132;-21.820;2023-05-07T09:14:56;0.17;;;0.00;;
72373;SDS011;60349;64.132;-21.820;2023-05-07T09:17:22;0.00;;;0.00;;
72373;SDS011;60349;64.132;-21.820;2023-05-07T09:19:48;0.30;;;0.00;;
72373;SDS011;60349;64.132;-21.820;2023-05-07T09:22:14;0.08;;;0.00;;
72373;SDS011;60349;64.132;-21.820;2023-05-07T09:24:40;0.10;;;0.00;;
72373;SDS011;60349;64.132;-21.820;2023-05-07T09:27:07;0.20;;;0.00;;
72373;SDS011;60349;64.132;-21.820;2023-05-07T09:29:35;0.00;;;0.00;;
72373;SDS011;60349;64.132;-21.820;2023-05-07T09:32:01;0.45;;;0.00;;
72373;SDS011;60349;64.132;-21.820;2023-05-07T09:34:28;0.00;;;0.00;;
72373;SDS011;60349;64.132;-21.820;2023-05-07T09:36:55;0.00;;;0.00;;
72373;SDS011;60349;64.132;-21.820;2023-05-07T09:39:22;1.77;;;0.00;;
72373;SDS011;60349;64.132;-21.820;2023-05-07T09:41:48;0.00;;;0.00;;
72373;SDS011;60349;64.132;-21.820;2023-05-07T09:44:16;0.13;;;0.00;;
72373;SDS011;60349;64.132;-21.820;2023-05-07T09:46:43;0.00;;;0.00;;
72373;SDS011;60349;64.132;-21.820;2023-05-07T09:49:16;1.45;;;0.00;;
72373;SDS011;60349;64.132;-21.820;2023-05-07T09:51:48;0.00;;;0.00;;
72373;SDS011;60349;64.132;-21.820;2023-05-07T09:54:15;0.30;;;0.00;;
72373;SDS011;60349;64.132;-21.820;2023-05-07T09:56:42;0.25;;;0.00;;
72373;SDS011;60349;64.132;-21.820;2023-05-07T09:59:10;0.10;;;0.00;;
72373;SDS011;60349;64.132;-21.820;2023-05-07T10:01:38;0.22;;;0.00;;
72373;SDS011;60349;64.132;-21.820;2023-05-07T10:04:07;0.20;;;0.00;;
72373;SDS011;60349;64.132;-21.820;2023-05-07T10:06:34;0.10;;;0.00;;
72373;SDS011;60349;64.132;-21.820;2023-05-07T10:09:01;0.10;;;0.00;;
72373;SDS011;60349;64.132;-21.820;2023-05-07T10:11:27;0.75;;;0.00;;
72373;SDS011;60349;64.132;-21.820;2023-05-07T10:13:53;0.10;;;0.00;;
72373;SDS011;60349;64.132;-21.820;2023-05-07T10:16:20;0.03;;;0.00;;
72373;SDS011;60349;64.132;-21.820;2023-05-07T10:18:47;0.10;;;0.00;;
72373;SDS011;60349;64.132;-21.820;2023-05-07T10:21:21;0.28;;;0.00;;
72373;SDS011;60349;64.132;-21.820;2023-05-07T10:26:42;0.00;;;0.00;;
72373;SDS011;60349;64.132;-21.820;2023-05-07T10:29:14;0.10;;;0.00;;
72373;SDS011;60349;64.132;-21.820;2023-05-07T10:34:14;0.43;;;0.00;;
72373;SDS011;60349;64.132;-21.820;2023-05-07T10:36:41;0.30;;;0.00;;
72373;SDS011;60349;64.132;-21.820;2023-05-07T10:39:08;0.22;;;0.00;;
72373;SDS011;60349;64.132;-21.820;2023-05-07T10:41:34;0.00;;;0.00;;
72373;SDS011;60349;64.132;-21.820;2023-05-07T10:44:02;0.05;;;0.00;;
72373;SDS011;60349;64.132;-21.820;2023-05-07T10:46:28;0.08;;;0.00;;
72373;SDS011;60349;64.132;-21.820;2023-05-07T10:51:31;0.10;;;0.00;;
72373;SDS011;60349;64.132;-21.820;2023-05-07T10:56:36;0.00;;;0.00;;
72373;SDS011;60349;64.132;-21.820;2023-05-07T11:01:56;0.00;;;0.00;;
72373;SDS011;60349;64.132;-21.820;2023-05-07T11:04:23;1.27;;;0.00;;
72373;SDS011;60349;64.132;-21.820;2023-05-07T11:12:02;0.08;;;0.00;;
72373;SDS011;60349;64.132;-21.820;2023-05-07T11:17:10;0.00;;;0.00;;
72373;SDS011;60349;64.132;-21.820;2023-05-07T11:19:55;0.13;;;0.00;;
72373;SDS011;60349;64.132;-21.820;2023-05-07T11:25:01;3.40;;;0.00;;
72373;SDS011;60349;64.132;-21.820;2023-05-07T11:27:27;0.00;;;0.00;;
72373;SDS011;60349;64.132;-21.820;2023-05-07T11:29:53;2.45;;;0.00;;
72373;SDS011;60349;64.132;-21.820;2023-05-07T11:32:23;0.00;;;0.00;;
72373;SDS011;60349;64.132;-21.820;2023-05-07T11:34:56;0.15;;;0.00;;
72373;SDS011;60349;64.132;-21.820;2023-05-07T11:37:22;0.17;;;0.00;;
72373;SDS011;60349;64.132;-21.820;2023-05-07T11:39:49;0.00;;;0.00;;
72373;SDS011;60349;64.132;-21.820;2023-05-07T11:42:28;0.10;;;0.00;;
72373;SDS011;60349;64.132;-21.820;2023-05-07T11:44:54;1.65;;;0.00;;
72373;SDS011;60349;64.132;-21.820;2023-05-07T11:47:20;0.20;;;0.00;;
72373;SDS011;60349;64.132;-21.820;2023-05-07T11:49:50;0.00;;;0.00;;
72373;SDS011;60349;64.132;-21.820;2023-05-07T11:52:16;0.00;;;0.00;;
72373;SDS011;60349;64.132;-21.820;2023-05-07T11:54:56;0.82;;;0.00;;
72373;SDS011;60349;64.132;-21.820;2023-05-07T11:57:23;1.20;;;0.00;;
72373;SDS011;60349;64.132;-21.820;2023-05-07T12:02:21;0.10;;;0.00;;
72373;SDS011;60349;64.132;-21.820;2023-05-07T12:04:47;0.10;;;0.00;;
72373;SDS011;60349;64.132;-21.820;2023-05-07T12:07:14;0.10;;;0.00;;
72373;SDS011;60349;64.132;-21.820;2023-05-07T12:09:43;0.10;;;0.00;;
72373;SDS011;60349;64.132;-21.820;2023-05-07T12:12:10;1.05;;;0.00;;
72373;SDS011;60349;64.132;-21.820;2023-05-07T12:14:40;1.35;;;0.00;;
72373;SDS011;60349;64.132;-21.820;2023-05-07T12:17:10;0.20;;;0.00;;
72373;SDS011;60349;64.132;-21.820;2023-05-07T12:19:36;0.43;;;0.00;;
72373;SDS011;60349;64.132;-21.820;2023-05-07T12:22:03;0.10;;;0.00;;
72373;SDS011;60349;64.132;-21.820;2023-05-07T12:24:42;0.00;;;0.00;;
72373;SDS011;60349;64.132;-21.820;2023-05-07T12:27:08;0.10;;;0.00;;
72373;SDS011;60349;64.132;-21.820;2023-05-07T12:29:35;0.47;;;0.00;;
72373;SDS011;60349;64.132;-21.820;2023-05-07T12:32:04;0.10;;;0.00;;
72373;SDS011;60349;64.132;-21.820;2023-05-07T12:34:31;0.00;;;0.00;;
72373;SDS011;60349;64.132;-21.820;2023-05-07T12:36:57;0.75;;;0.00;;
72373;SDS011;60349;64.132;-21.820;2023-05-07T12:39:28;0.00;;;0.00;;
72373;SDS011;60349;64.132;-21.820;2023-05-07T12:41:55;0.30;;;0.00;;
72373;SDS011;60349;64.132;-21.820;2023-05-07T12:44:22;0.00;;;0.00;;
72373;SDS011;60349;64.132;-21.820;2023-05-07T12:46:48;0.20;;;0.00;;
72373;SDS011;60349;64.132;-21.820;2023-05-07T12:49:15;0.10;;;0.00;;
72373;SDS011;60349;64.132;-21.820;2023-05-07T12:51:43;0.10;;;0.00;;
72373;SDS011;60349;64.132;-21.820;2023-05-07T12:54:09;0.00;;;0.00;;
72373;SDS011;60349;64.132;-21.820;2023-05-07T12:56:35;1.20;;;0.00;;
72373;SDS011;60349;64.132;-21.820;2023-05-07T12:59:02;0.10;;;0.00;;
72373;SDS011;60349;64.132;-21.820;2023-05-07T13:01:29;0.00;;;0.00;;
72373;SDS011;60349;64.132;-21.820;2023-05-07T13:03:55;0.05;;;0.00;;
72373;SDS011;60349;64.132;-21.820;2023-05-07T13:06:22;0.20;;;0.00;;
72373;SDS011;60349;64.132;-21.820;2023-05-07T13:08:48;0.08;;;0.00;;
72373;SDS011;60349;64.132;-21.820;2023-05-07T13:11:14;0.28;;;0.00;;
72373;SDS011;60349;64.132;-21.820;2023-05-07T13:13:41;0.08;;;0.00;;
72373;SDS011;60349;64.132;-21.820;2023-05-07T13:16:07;0.00;;;0.00;;
72373;SDS011;60349;64.132;-21.820;2023-05-07T13:18:34;0.05;;;0.00;;
72373;SDS011;60349;64.132;-21.820;2023-05-07T13:21:00;0.00;;;0.00;;
72373;SDS011;60349;64.132;-21.820;2023-05-07T13:23:27;0.08;;;0.00;;
72373;SDS011;60349;64.132;-21.820;2023-05-07T13:25:53;0.00;;;0.00;;
72373;SDS011;60349;64.132;-21.820;2023-05-07T13:28:20;0.55;;;0.00;;
72373;SDS011;60349;64.132;-21.820;2023-05-07T13:30:47;0.13;;;0.00;;
72373;SDS011;60349;64.132;-21.820;2023-05-07T13:33:13;0.00;;;0.00;;
72373;SDS011;60349;64.132;-21.820;2023-05-07T13:35:41;0.10;;;0.00;;
72373;SDS011;60349;64.132;-21.820;2023-05-07T13:38:07;0.00;;;0.00;;
72373;SDS011;60349;64.132;-21.820;2023-05-07T13:40:33;0.28;;;0.00;;
72373;SDS011;60349;64.132;-21.820;2023-05-07T13:43:00;0.00;;;0.00;;
72373;SDS011;60349;64.132;-21.820;2023-05-07T13:45:29;0.80;;;0.00;;
72373;SDS011;60349;64.132;-21.820;2023-05-07T13:47:55;0.08;;;0.00;;
72373;SDS011;60349;64.132;-21.820;2023-05-07T13:50:22;2.13;;;0.00;;
72373;SDS011;60349;64.132;-21.820;2023-05-07T13:52:48;0.32;;;0.00;;
72373;SDS011;60349;64.132;-21.820;2023-05-07T13:55:17;0.22;;;0.00;;
72373;SDS011;60349;64.132;-21.820;2023-05-07T13:57:44;0.10;;;0.00;;
72373;SDS011;60349;64.132;-21.820;2023-05-07T14:00:10;0.00;;;0.00;;
72373;SDS011;60349;64.132;-21.820;2023-05-07T14:02:36;0.00;;;0.00;;
72373;SDS011;60349;64.132;-21.820;2023-05-07T14:05:02;0.00;;;0.00;;
72373;SDS011;60349;64.132;-21.820;2023-05-07T14:07:29;0.00;;;0.00;;
72373;SDS011;60349;64.132;-21.820;2023-05-07T14:09:56;0.10;;;0.00;;
72373;SDS011;60349;64.132;-21.820;2023-05-07T14:12:22;0.00;;;0.00;;
72373;SDS011;60349;64.132;-21.820;2023-05-07T14:14:48;0.00;;;0.00;;
72373;SDS011;60349;64.132;-21.820;2023-05-07T14:17:17;0.20;;;0.00;;
72373;SDS011;60349;64.132;-21.820;2023-05-07T14:19:44;0.13;;;0.00;;
72373;SDS011;60349;64.132;-21.820;2023-05-07T14:22:10;0.00;;;0.00;;
72373;SDS011;60349;64.132;-21.820;2023-05-07T14:24:36;1.77;;;0.00;;
72373;SDS011;60349;64.132;-21.820;2023-05-07T14:27:03;1.63;;;0.00;;
72373;SDS011;60349;64.132;-21.820;2023-05-07T14:29:29;1.58;;;0.00;;
72373;SDS011;60349;64.132;-21.820;2023-05-07T14:31:55;1.05;;;0.00;;
72373;SDS011;60349;64.132;-21.820;2023-05-07T14:34:21;0.70;;;0.00;;
72373;SDS011;60349;64.132;-21.820;2023-05-07T14:36:48;0.08;;;0.00;;
72373;SDS011;60349;64.132;-21.820;2023-05-07T14:39:14;0.55;;;0.00;;
72373;SDS011;60349;64.132;-21.820;2023-05-07T14:41:40;0.30;;;0.00;;
72373;SDS011;60349;64.132;-21.820;2023-05-07T14:44:06;0.60;;;0.00;;